Time;durP1;ratioP1;P1;durP2;ratioP2;P2;SDS_P1;SDS_P2;PMS_P1;PMS_P2;Temp;Humidity;BMP_temperature;BMP_pressure;BME280_temperature;BME280_humidity;BME280_pressure;Samples;Min_cycle;Max_cycle;Signal;HPM_P1;HPM_P2
2023/06/30 00:00:15;;;;;;;;;;;;;;;22.29;68.54;97059.50;627031;226;63319;-62
2023/06/30 00:02:49;;;;;;;;;;;;;;;22.28;68.54;97055.20;627036;225;45537;-62
2023/06/30 00:05:14;;;;;;;;;;;;;;;22.29;68.59;97056.00;626867;225;63021;-62
2023/06/30 00:07:47;;;;;;;;;;;;;;;22.28;68.51;97054.41;627051;226;65349;-62
2023/06/30 00:10:11;;;;;;;;;;;;;;;22.29;68.54;97056.00;626821;225;65107;-62
2023/06/30 00:12:39;;;;;;;;;;;;;;;22.28;68.50;97052.52;626936;226;64986;-62
2023/06/30 00:15:06;;;;;;;;;;;;;;;22.28;68.60;97057.88;627022;226;65276;-62
2023/06/30 00:17:34;;;;;;;;;;;;;;;22.28;68.55;97063.23;627041;226;65100;-62
2023/06/30 00:20:05;;;;;;;;;;;;;;;22.27;68.58;97067.00;627104;226;65097;-62
2023/06/30 00:22:30;;;;;;;;;;;;;;;22.28;68.56;97059.77;626939;225;62980;-62
2023/06/30 00:24:58;;;;;;;;;;;;;;;22.28;68.55;97054.41;626980;226;65308;-62
2023/06/30 00:27:26;;;;;;;;;;;;;;;22.27;68.57;97053.61;626996;226;63007;-62
2023/06/30 00:29:53;;;;;;;;;;;;;;;22.28;68.68;97057.09;627002;226;63224;-62
2023/06/30 00:32:21;;;;;;;;;;;;;;;22.27;68.61;97053.61;627076;226;63058;-62
2023/06/30 00:34:50;;;;;;;;;;;;;;;22.27;68.58;97055.50;627047;225;46890;-62
2023/06/30 00:37:18;;;;;;;;;;;;;;;22.27;68.75;97053.61;627000;226;63360;-62
2023/06/30 00:39:45;;;;;;;;;;;;;;;22.27;68.66;97053.61;627019;226;65213;-62
2023/06/30 00:42:12;;;;;;;;;;;;;;;22.27;68.83;97045.58;627020;226;66131;-62
2023/06/30 00:44:40;;;;;;;;;;;;;;;22.27;68.64;97052.82;627056;226;64031;-62
2023/06/30 00:47:07;;;;;;;;;;;;;;;22.26;68.72;97052.02;627029;226;65346;-63
2023/06/30 00:49:35;;;;;;;;;;;;;;;22.27;68.71;97058.97;627028;226;62728;-63
2023/06/30 00:52:03;;;;;;;;;;;;;;;22.25;68.77;97053.08;626937;226;64051;-63
2023/06/30 00:54:30;;;;;;;;;;;;;;;22.26;68.76;97054.70;627045;226;63299;-62
2023/06/30 00:56:59;;;;;;;;;;;;;;;22.26;68.91;97052.02;627088;226;62890;-62
2023/06/30 00:59:26;;;;;;;;;;;;;;;22.25;68.83;97052.29;627045;226;65325;-63
2023/06/30 01:02:01;;;;;;;;;;;;;;;22.25;68.76;97047.73;627057;226;65150;-63
2023/06/30 01:04:39;;;;;;;;;;;;;;;22.26;68.80;97054.70;626892;225;64969;-63
2023/06/30 01:07:11;;;;;;;;;;;;;;;22.26;69.01;97052.02;627050;226;65129;-63
2023/06/30 01:09:40;;;;;;;;;;;;;;;22.25;68.75;97053.08;627006;225;65353;-63
2023/06/30 01:12:08;;;;;;;;;;;;;;;22.26;68.82;97054.70;626910;225;65046;-63
2023/06/30 01:14:37;;;;;;;;;;;;;;;22.25;68.83;97050.41;627052;226;62840;-63
2023/06/30 01:17:06;;;;;;;;;;;;;;;22.24;68.89;97048.82;627030;226;63493;-63
2023/06/30 01:19:35;;;;;;;;;;;;;;;22.24;68.86;97054.17;627026;226;63019;-63
2023/06/30 01:22:13;;;;;;;;;;;;;;;22.24;68.98;97043.47;627063;226;65442;-62
2023/06/30 01:24:40;;;;;;;;;;;;;;;22.25;69.02;97049.61;626970;225;66205;-63
2023/06/30 01:27:09;;;;;;;;;;;;;;;22.24;68.87;97043.47;627079;226;65812;-63
2023/06/30 01:29:42;;;;;;;;;;;;;;;22.24;68.94;97043.47;622905;226;67723;-63
2023/06/30 01:32:08;;;;;;;;;;;;;;;22.24;68.90;97037.31;626964;225;65051;-63
2023/06/30 01:34:35;;;;;;;;;;;;;;;22.24;68.96;97038.11;627089;226;65075;-63
2023/06/30 01:37:03;;;;;;;;;;;;;;;22.24;69.00;97038.11;627055;226;62577;-64
2023/06/30 01:39:31;;;;;;;;;;;;;;;22.24;69.08;97032.76;627062;226;65578;-64
2023/06/30 01:41:58;;;;;;;;;;;;;;;22.23;69.00;97031.14;626987;226;65016;-63
2023/06/30 01:44:27;;;;;;;;;;;;;;;22.24;69.04;97024.73;627038;226;64361;-64
2023/06/30 01:46:55;;;;;;;;;;;;;;;22.23;68.96;97027.67;627044;226;63033;-64
2023/06/30 01:49:25;;;;;;;;;;;;;;;22.23;69.04;97028.46;627140;224;47876;-64
2023/06/30 01:51:52;;;;;;;;;;;;;;;22.23;69.04;97019.64;626824;226;65484;-64
2023/06/30 01:54:20;;;;;;;;;;;;;;;22.23;69.21;97016.96;627026;226;65105;-64
2023/06/30 01:56:48;;;;;;;;;;;;;;;22.23;69.24;97020.43;627016;226;65999;-64
2023/06/30 01:59:16;;;;;;;;;;;;;;;22.22;69.00;97026.88;627035;226;63116;-64
2023/06/30 02:01:44;;;;;;;;;;;;;;;22.23;68.93;97020.43;627052;226;65403;-64
2023/06/30 02:04:11;;;;;;;;;;;;;;;22.23;68.92;97024.98;627046;226;65092;-64
2023/06/30 02:06:39;;;;;;;;;;;;;;;22.22;69.18;97024.20;627038;226;66266;-64
2023/06/30 02:09:06;;;;;;;;;;;;;;;22.22;69.24;97018.05;627024;226;64993;-64
2023/06/30 02:11:34;;;;;;;;;;;;;;;22.22;69.02;97016.17;627024;226;63747;-64
2023/06/30 02:14:01;;;;;;;;;;;;;;;22.22;68.89;97018.84;626994;226;63071;-64
2023/06/30 02:16:29;;;;;;;;;;;;;;;22.23;69.39;97016.96;627039;226;63648;-64
2023/06/30 02:18:56;;;;;;;;;;;;;;;22.22;69.85;97012.70;627103;226;62929;-64
2023/06/30 02:21:24;;;;;;;;;;;;;;;22.22;69.36;97012.70;627038;226;65410;-64
2023/06/30 02:23:52;;;;;;;;;;;;;;;22.21;69.14;97022.61;627033;226;64748;-64
2023/06/30 02:26:19;;;;;;;;;;;;;;;22.22;70.32;97028.76;627023;226;62891;-63
2023/06/30 02:28:47;;;;;;;;;;;;;;;22.21;69.16;97016.43;627025;226;65012;-63
2023/06/30 02:31:16;;;;;;;;;;;;;;;22.22;69.10;97015.38;627096;225;42998;-63
2023/06/30 02:33:44;;;;;;;;;;;;;;;22.21;69.03;97022.61;627060;226;62746;-63
2023/06/30 02:36:11;;;;;;;;;;;;;;;22.22;70.61;97018.84;626981;226;63003;-63
2023/06/30 02:38:39;;;;;;;;;;;;;;;22.22;69.32;97028.76;627036;226;63204;-63
2023/06/30 02:41:06;;;;;;;;;;;;;;;22.21;69.67;97027.97;627042;226;63080;-63
2023/06/30 02:43:34;;;;;;;;;;;;;;;22.21;70.00;97016.43;627085;226;65413;-63
2023/06/30 02:46:02;;;;;;;;;;;;;;;22.21;69.11;97027.14;627022;226;64993;-63
2023/06/30 02:48:29;;;;;;;;;;;;;;;22.20;69.05;97026.34;627068;226;62955;-63
2023/06/30 02:50:57;;;;;;;;;;;;;;;22.20;69.09;97026.34;626992;226;65190;-63
2023/06/30 02:53:24;;;;;;;;;;;;;;;22.20;71.89;97029.02;626853;226;65023;-63
2023/06/30 02:55:52;;;;;;;;;;;;;;;22.21;69.57;97024.46;626969;226;64849;-63
2023/06/30 02:58:20;;;;;;;;;;;;;;;22.20;69.93;97026.34;627017;226;66346;-63
2023/06/30 03:00:49;;;;;;;;;;;;;;;22.19;69.41;97022.08;627026;226;65919;-63
2023/06/30 03:03:17;;;;;;;;;;;;;;;22.20;70.52;97022.88;626968;226;63146;-63
2023/06/30 03:05:46;;;;;;;;;;;;;;;22.21;69.95;97027.14;627042;226;65538;-63
2023/06/30 03:08:15;;;;;;;;;;;;;;;22.20;69.62;97028.23;627057;226;65714;-63
2023/06/30 03:10:42;;;;;;;;;;;;;;;22.19;69.34;97021.29;627091;226;65734;-63
2023/06/30 03:13:10;;;;;;;;;;;;;;;22.19;69.58;97018.61;625861;226;65260;-63
2023/06/30 03:15:37;;;;;;;;;;;;;;;22.20;70.04;97020.20;624758;227;65276;-63
2023/06/30 03:18:06;;;;;;;;;;;;;;;22.19;69.53;97018.61;624736;227;65862;-63
2023/06/30 03:20:33;;;;;;;;;;;;;;;22.19;69.63;97019.41;624729;227;65474;-63
2023/06/30 03:23:01;;;;;;;;;;;;;;;22.19;69.28;97018.61;624803;227;63157;-63
2023/06/30 03:25:28;;;;;;;;;;;;;;;22.19;70.03;97022.08;624728;227;65003;-63
2023/06/30 03:27:56;;;;;;;;;;;;;;;22.18;69.70;97012.46;624743;227;65561;-63
2023/06/30 03:30:24;;;;;;;;;;;;;;;22.19;69.35;97013.26;624741;227;65153;-63
2023/06/30 03:32:51;;;;;;;;;;;;;;;22.18;70.91;97015.14;624753;227;65544;-63
2023/06/30 03:35:19;;;;;;;;;;;;;;;22.17;69.62;97008.93;624815;227;65612;-63
2023/06/30 03:37:47;;;;;;;;;;;;;;;22.18;69.34;97009.78;624808;227;63538;-63
2023/06/30 03:40:14;;;;;;;;;;;;;;;22.17;69.71;97006.25;624782;225;64899;-63
2023/06/30 03:42:42;;;;;;;;;;;;;;;22.17;69.77;97002.78;624757;227;62444;-63
2023/06/30 03:45:09;;;;;;;;;;;;;;;22.17;69.37;97003.58;624747;227;63009;-63
2023/06/30 03:47:37;;;;;;;;;;;;;;;22.17;69.50;97000.11;624822;227;65709;-63
2023/06/30 03:50:06;;;;;;;;;;;;;;;22.17;69.33;97005.46;624756;227;65124;-63
2023/06/30 03:52:35;;;;;;;;;;;;;;;22.17;69.17;97005.46;624802;227;62741;-64
2023/06/30 03:55:03;;;;;;;;;;;;;;;22.17;70.98;97005.46;624778;227;62541;-64
2023/06/30 03:57:30;;;;;;;;;;;;;;;22.17;69.67;97011.61;624720;227;65155;-64
2023/06/30 03:59:58;;;;;;;;;;;;;;;22.17;70.25;97010.81;624814;227;66292;-64
2023/06/30 04:02:26;;;;;;;;;;;;;;;22.16;70.39;97004.67;624784;227;65162;-64
2023/06/30 04:04:53;;;;;;;;;;;;;;;22.17;69.81;97010.81;624716;227;62888;-64
2023/06/30 04:07:21;;;;;;;;;;;;;;;22.16;70.47;97004.67;624754;227;63957;-64
2023/06/30 04:09:48;;;;;;;;;;;;;;;22.16;69.74;97009.23;624701;227;64955;-64
2023/06/30 04:12:16;;;;;;;;;;;;;;;22.16;71.69;97004.67;624942;226;65676;-63
2023/06/30 04:14:43;;;;;;;;;;;;;;;22.15;69.73;97008.44;627069;226;65192;-64
2023/06/30 04:17:11;;;;;;;;;;;;;;;22.15;69.87;97003.08;627009;226;65039;-64
2023/06/30 04:19:38;;;;;;;;;;;;;;;22.15;70.29;96999.58;627006;226;65384;-64
2023/06/30 04:22:06;;;;;;;;;;;;;;;22.15;70.05;96995.05;627042;226;65290;-64
2023/06/30 04:24:33;;;;;;;;;;;;;;;22.16;69.92;97001.20;626977;226;65077;-64
2023/06/30 04:27:01;;;;;;;;;;;;;;;22.15;70.08;96994.23;627041;226;65417;-64
2023/06/30 04:29:28;;;;;;;;;;;;;;;22.15;70.42;96996.91;627011;226;65286;-63
2023/06/30 04:31:56;;;;;;;;;;;;;;;22.15;69.76;97004.93;627057;226;64849;-63
2023/06/30 04:34:25;;;;;;;;;;;;;;;22.16;71.30;96993.17;627023;226;63905;-62
2023/06/30 04:36:52;;;;;;;;;;;;;;;22.14;69.72;96993.44;627027;226;65211;-62
2023/06/30 04:39:19;;;;;;;;;;;;;;;22.15;70.40;96994.23;627081;226;62728;-62
2023/06/30 04:41:47;;;;;;;;;;;;;;;22.14;69.54;97001.46;627046;226;63153;-62
2023/06/30 04:44:14;;;;;;;;;;;;;;;22.14;70.27;96990.75;627053;226;63209;-62
2023/06/30 04:46:42;;;;;;;;;;;;;;;22.14;70.17;96989.96;627040;226;62938;-62
2023/06/30 04:49:09;;;;;;;;;;;;;;;22.14;69.75;96996.11;627057;226;65354;-62
2023/06/30 04:51:37;;;;;;;;;;;;;;;22.13;70.34;96996.41;627115;226;64959;-62
2023/06/30 04:54:04;;;;;;;;;;;;;;;22.14;69.56;96993.44;627029;226;65010;-62
2023/06/30 04:56:32;;;;;;;;;;;;;;;22.14;70.02;96995.31;626959;226;65356;-62
2023/06/30 04:58:59;;;;;;;;;;;;;;;22.13;69.63;97002.55;626863;226;63356;-62
2023/06/30 05:01:27;;;;;;;;;;;;;;;22.14;70.46;97000.67;627004;226;65080;-62
2023/06/30 05:03:54;;;;;;;;;;;;;;;22.13;70.04;96997.20;627076;226;65739;-62
2023/06/30 05:06:22;;;;;;;;;;;;;;;22.13;70.12;97002.55;626780;226;65296;-62
2023/06/30 05:08:49;;;;;;;;;;;;;;;22.14;70.30;96995.31;627034;226;65006;-63
2023/06/30 05:11:16;;;;;;;;;;;;;;;22.14;72.20;96998.78;626969;226;65374;-63
2023/06/30 05:13:44;;;;;;;;;;;;;;;22.13;71.15;96991.84;625258;226;65165;-63
2023/06/30 05:16:12;;;;;;;;;;;;;;;22.12;69.95;96992.91;624790;227;64872;-63
2023/06/30 05:18:39;;;;;;;;;;;;;;;22.15;72.99;96994.23;624797;227;65200;-63
2023/06/30 05:21:10;;;;;;;;;;;;;;;22.13;70.70;96991.05;624767;227;65474;-62
2023/06/30 05:23:37;;;;;;;;;;;;;;;22.12;71.13;96992.11;623766;227;63862;-63
2023/06/30 05:26:06;;;;;;;;;;;;;;;22.13;71.43;96993.73;624429;227;67089;-62
2023/06/30 05:28:35;;;;;;;;;;;;;;;22.12;70.48;96998.25;624768;227;63160;-62
2023/06/30 05:31:05;;;;;;;;;;;;;;;22.12;70.63;96990.23;624743;227;65074;-62
2023/06/30 05:33:32;;;;;;;;;;;;;;;22.12;71.34;96992.91;624763;227;63153;-62
2023/06/30 05:36:00;;;;;;;;;;;;;;;22.12;70.52;96992.11;624770;227;65190;-63
2023/06/30 05:38:28;;;;;;;;;;;;;;;22.12;71.73;96990.23;624788;227;65125;-63
2023/06/30 05:40:56;;;;;;;;;;;;;;;22.12;72.14;96986.76;624801;227;65560;-63
2023/06/30 05:43:24;;;;;;;;;;;;;;;22.12;72.22;96994.79;624841;227;65051;-63
2023/06/30 05:45:51;;;;;;;;;;;;;;;22.11;70.53;96983.28;621044;227;65061;-63
2023/06/30 05:48:20;;;;;;;;;;;;;;;22.10;70.68;96981.70;617630;230;65416;-62
2023/06/30 05:50:47;;;;;;;;;;;;;;;22.11;71.05;96979.81;617674;230;65146;-63
2023/06/30 05:53:15;;;;;;;;;;;;;;;22.11;70.65;96982.50;617647;230;65114;-63
2023/06/30 05:55:43;;;;;;;;;;;;;;;22.11;70.62;96982.50;617838;227;65409;-64
2023/06/30 05:58:10;;;;;;;;;;;;;;;22.10;70.45;96981.70;617711;227;63268;-64
2023/06/30 06:00:37;;;;;;;;;;;;;;;22.11;70.62;96985.96;617551;227;65099;-65
2023/06/30 06:03:05;;;;;;;;;;;;;;;22.09;69.99;96988.11;616843;230;63145;-64
2023/06/30 06:05:32;;;;;;;;;;;;;;;22.09;70.05;96990.79;617567;230;64962;-64
2023/06/30 06:08:00;;;;;;;;;;;;;;;22.11;70.31;96990.52;621352;227;65303;-62
2023/06/30 06:10:29;;;;;;;;;;;;;;;22.10;69.98;96988.94;624645;227;65650;-62
2023/06/30 06:12:56;;;;;;;;;;;;;;;22.09;69.50;96989.99;624338;227;65667;-64
2023/06/30 06:15:24;;;;;;;;;;;;;;;22.10;69.71;96980.91;624616;227;65037;-63
2023/06/30 06:17:51;;;;;;;;;;;;;;;22.10;69.60;96986.27;624656;227;65474;-64
2023/06/30 06:20:18;;;;;;;;;;;;;;;22.12;70.30;96992.11;624714;227;63149;-62
2023/06/30 06:22:46;;;;;;;;;;;;;;;22.11;71.01;96988.64;624713;227;62759;-62
2023/06/30 06:25:13;;;;;;;;;;;;;;;22.11;71.89;96991.31;624657;227;63178;-62
2023/06/30 06:27:41;;;;;;;;;;;;;;;22.12;72.90;96994.79;624466;227;63068;-63
2023/06/30 06:30:09;;;;;;;;;;;;;;;22.13;71.97;96991.05;617706;227;64979;-63
2023/06/30 06:32:36;;;;;;;;;;;;;;;22.11;71.44;96985.17;617582;230;65126;-62
2023/06/30 06:35:04;;;;;;;;;;;;;;;22.12;72.86;96997.47;617624;230;63182;-63
2023/06/30 06:37:31;;;;;;;;;;;;;;;22.11;72.46;96985.96;617503;230;65067;-63
2023/06/30 06:39:59;;;;;;;;;;;;;;;22.11;71.07;96987.84;622122;227;63485;-63
2023/06/30 06:42:26;;;;;;;;;;;;;;;22.12;71.68;96990.23;617578;230;62989;-64
2023/06/30 06:44:54;;;;;;;;;;;;;;;22.13;73.11;96991.05;617455;230;62968;-63
2023/06/30 06:47:39;;;;;;;;;;;;;;;22.13;72.79;96996.41;617620;230;63309;-64
2023/06/30 06:50:07;;;;;;;;;;;;;;;22.11;72.80;96991.31;617618;230;65194;-63
2023/06/30 06:52:34;;;;;;;;;;;;;;;22.13;73.73;96988.38;617527;230;65056;-62
2023/06/30 06:55:02;;;;;;;;;;;;;;;22.12;73.20;96982.20;617609;230;65581;-62
2023/06/30 06:57:29;;;;;;;;;;;;;;;22.13;74.72;96991.05;617493;230;65350;-62
2023/06/30 06:59:59;;;;;;;;;;;;;;;22.11;70.46;96991.31;617556;230;65134;-62
2023/06/30 07:02:26;;;;;;;;;;;;;;;22.11;71.62;96985.96;617546;230;63303;-64
2023/06/30 07:04:54;;;;;;;;;;;;;;;22.12;72.80;96992.11;617576;230;65184;-64
2023/06/30 07:07:21;;;;;;;;;;;;;;;22.11;72.97;96985.17;617493;230;62951;-64
2023/06/30 07:09:49;;;;;;;;;;;;;;;22.10;73.17;96980.91;617549;230;65387;-63
2023/06/30 07:12:16;;;;;;;;;;;;;;;22.08;72.53;96978.50;617563;229;65136;-63
2023/06/30 07:14:44;;;;;;;;;;;;;;;22.09;72.84;96982.76;617578;230;64801;-63
2023/06/30 07:17:11;;;;;;;;;;;;;;;22.09;72.11;96981.97;617471;230;62933;-63
2023/06/30 07:19:39;;;;;;;;;;;;;;;22.13;66.36;96980.34;617447;230;62741;-64
2023/06/30 07:22:06;;;;;;;;;;;;;;;22.12;64.96;96976.84;617568;230;63082;-63
2023/06/30 07:24:34;;;;;;;;;;;;;;;22.13;66.09;96970.44;617590;230;63179;-64
2023/06/30 07:27:02;;;;;;;;;;;;;;;22.15;70.14;96987.02;617532;230;65551;-64
2023/06/30 07:29:29;;;;;;;;;;;;;;;22.15;72.88;96981.67;617531;230;65029;-64
2023/06/30 07:31:57;;;;;;;;;;;;;;;22.13;71.41;96975.78;617536;230;65411;-64
2023/06/30 07:34:26;;;;;;;;;;;;;;;22.14;72.64;96974.70;617487;230;65283;-64
2023/06/30 07:36:53;;;;;;;;;;;;;;;22.13;72.77;96981.14;617487;230;65129;-62
2023/06/30 07:39:21;;;;;;;;;;;;;;;22.12;67.89;96976.05;617604;230;65759;-63
2023/06/30 07:41:51;;;;;;;;;;;;;;;22.15;67.31;96978.16;617155;230;63759;-64
2023/06/30 07:44:19;;;;;;;;;;;;;;;22.16;69.97;96977.11;617625;230;63112;-63
2023/06/30 07:46:47;;;;;;;;;;;;;;;22.15;70.01;96980.84;617582;230;64897;-65
2023/06/30 07:49:14;;;;;;;;;;;;;;;22.15;70.40;96980.84;617584;230;65002;-66
2023/06/30 07:51:42;;;;;;;;;;;;;;;22.15;72.12;96975.48;617548;230;62642;-63
2023/06/30 07:54:10;;;;;;;;;;;;;;;22.15;72.91;96975.48;617654;230;65408;-65
2023/06/30 07:56:38;;;;;;;;;;;;;;;22.15;71.93;96975.48;617539;230;65915;-62
2023/06/30 07:59:06;;;;;;;;;;;;;;;22.14;68.16;96974.70;617560;230;62883;-64
2023/06/30 08:01:33;;;;;;;;;;;;;;;22.18;71.25;96985.70;617441;230;63793;-63
2023/06/30 08:04:02;;;;;;;;;;;;;;;22.16;70.60;96979.78;617489;230;64911;-62
2023/06/30 08:06:30;;;;;;;;;;;;;;;22.16;71.42;96971.75;617640;230;64981;-63
2023/06/30 08:08:58;;;;;;;;;;;;;;;22.17;73.39;96967.98;617615;230;65423;-63
2023/06/30 08:11:25;;;;;;;;;;;;;;;22.15;73.84;96970.96;617505;230;63202;-63
2023/06/30 08:13:53;;;;;;;;;;;;;;;22.14;73.54;96972.02;617518;229;62707;-64
2023/06/30 08:16:21;;;;;;;;;;;;;;;22.14;73.76;96963.20;617532;230;65682;-63
2023/06/30 08:18:48;;;;;;;;;;;;;;;22.14;73.49;96963.20;617577;230;65234;-63
2023/06/30 08:21:16;;;;;;;;;;;;;;;22.13;72.60;96956.26;619425;227;65005;-63
2023/06/30 08:23:43;;;;;;;;;;;;;;;22.14;73.00;96961.31;620649;227;65393;-63
2023/06/30 08:26:10;;;;;;;;;;;;;;;22.14;72.90;96963.98;618032;227;65412;-62
2023/06/30 08:28:38;;;;;;;;;;;;;;;22.13;72.44;96956.26;617556;230;65195;-63
2023/06/30 08:31:05;;;;;;;;;;;;;;;22.17;71.09;96966.11;617563;230;66074;-63
2023/06/30 08:33:33;;;;;;;;;;;;;;;22.17;73.84;96962.64;617595;230;62911;-63
2023/06/30 08:36:01;;;;;;;;;;;;;;;22.15;72.01;96964.78;617570;230;63006;-63
2023/06/30 08:38:29;;;;;;;;;;;;;;;22.15;71.74;96960.26;617515;230;65703;-63
2023/06/30 08:40:57;;;;;;;;;;;;;;;22.14;71.68;96958.64;617518;230;63496;-63
2023/06/30 08:43:26;;;;;;;;;;;;;;;22.14;71.15;96960.52;617546;230;65025;-62
2023/06/30 08:45:54;;;;;;;;;;;;;;;22.14;70.74;96958.64;617553;230;65386;-62
2023/06/30 08:48:22;;;;;;;;;;;;;;;22.15;71.47;96956.75;617589;230;65162;-62
2023/06/30 08:50:52;;;;;;;;;;;;;;;22.14;71.27;96947.14;617573;230;62877;-63
2023/06/30 08:53:23;;;;;;;;;;;;;;;22.14;71.55;96952.49;617493;230;65654;-62
2023/06/30 08:55:51;;;;;;;;;;;;;;;22.14;69.94;96955.17;617547;230;64966;-62
2023/06/30 08:58:19;;;;;;;;;;;;;;;22.14;71.22;96950.61;617659;230;65027;-62
2023/06/30 09:00:47;;;;;;;;;;;;;;;22.13;70.98;96946.34;619945;227;65217;-62
2023/06/30 09:03:14;;;;;;;;;;;;;;;22.13;71.39;96943.67;621051;227;65048;-63
2023/06/30 09:05:43;;;;;;;;;;;;;;;22.13;70.99;96945.55;622075;227;65078;-63
2023/06/30 09:08:18;;;;;;;;;;;;;;;22.13;70.89;96934.84;618450;227;65602;-62
2023/06/30 09:10:47;;;;;;;;;;;;;;;22.14;72.70;96944.46;617512;230;63255;-63
2023/06/30 09:13:16;;;;;;;;;;;;;;;22.12;70.96;96936.70;617407;229;65020;-64
2023/06/30 09:15:44;;;;;;;;;;;;;;;22.14;72.49;96928.41;617399;229;65438;-63
2023/06/30 09:18:12;;;;;;;;;;;;;;;22.13;69.82;96924.94;617534;230;62916;-63
2023/06/30 09:20:39;;;;;;;;;;;;;;;22.14;70.38;96926.52;617379;230;62779;-64
2023/06/30 09:23:07;;;;;;;;;;;;;;;22.13;70.36;96919.58;617508;230;63173;-62
2023/06/30 09:25:37;;;;;;;;;;;;;;;22.14;70.25;96915.81;617612;230;63140;-61
2023/06/30 09:28:12;;;;;;;;;;;;;;;22.13;69.84;96913.44;617559;230;65098;-62
2023/06/30 09:30:41;;;;;;;;;;;;;;;22.14;70.87;96912.34;617406;230;65514;-62
2023/06/30 09:33:09;;;;;;;;;;;;;;;22.13;69.97;96914.23;617490;230;65010;-62
2023/06/30 09:35:40;;;;;;;;;;;;;;;22.14;70.00;96909.67;617367;230;62980;-62
2023/06/30 09:38:11;;;;;;;;;;;;;;;22.13;69.33;96911.55;616682;230;65474;-62
2023/06/30 09:40:38;;;;;;;;;;;;;;;22.14;69.54;96910.46;617171;227;63063;-62
2023/06/30 09:43:06;;;;;;;;;;;;;;;22.15;68.67;96908.58;617530;230;62875;-62
2023/06/30 09:45:34;;;;;;;;;;;;;;;22.13;68.35;96898.17;617553;230;63307;-62
2023/06/30 09:48:02;;;;;;;;;;;;;;;22.16;71.48;96896.81;617458;230;64705;-62
2023/06/30 09:50:33;;;;;;;;;;;;;;;22.15;68.80;96900.55;617411;229;64998;-62
2023/06/30 09:53:01;;;;;;;;;;;;;;;22.15;68.61;96892.52;617584;230;65417;-62
2023/06/30 09:55:29;;;;;;;;;;;;;;;22.15;69.46;96897.88;618117;227;65510;-63
2023/06/30 09:57:58;;;;;;;;;;;;;;;22.17;72.14;96887.69;620369;225;42359;-62
2023/06/30 10:00:25;;;;;;;;;;;;;;;22.15;68.85;96896.02;621251;227;65458;-62
2023/06/30 10:03:03;;;;;;;;;;;;;;;22.19;66.77;96900.84;621173;227;65153;-62
2023/06/30 10:05:31;;;;;;;;;;;;;;;22.21;65.64;96891.45;620836;227;64909;-61
2023/06/30 10:08:00;;;;;;;;;;;;;;;22.24;66.95;96892.77;621690;227;65418;-62
2023/06/30 10:10:30;;;;;;;;;;;;;;;22.27;67.63;96892.99;624609;226;45237;-61
2023/06/30 10:13:01;;;;;;;;;;;;;;;22.30;67.79;96884.39;624538;227;64865;-61
2023/06/30 10:15:30;;;;;;;;;;;;;;;22.34;67.95;96893.47;624656;227;65221;-61
2023/06/30 10:17:58;;;;;;;;;;;;;;;22.35;68.20;96895.05;623430;227;63177;-61
2023/06/30 10:20:26;;;;;;;;;;;;;;;22.38;67.51;96888.34;623917;227;65095;-61
2023/06/30 10:22:54;;;;;;;;;;;;;;;22.39;67.37;96877.33;624641;227;65882;-61
2023/06/30 10:25:23;;;;;;;;;;;;;;;22.42;67.42;96872.50;624600;227;65214;-61
2023/06/30 10:27:50;;;;;;;;;;;;;;;22.43;67.29;96874.11;624632;227;63000;-63
2023/06/30 10:30:18;;;;;;;;;;;;;;;22.45;67.55;96875.40;624653;227;63184;-60
2023/06/30 10:32:45;;;;;;;;;;;;;;;22.46;68.34;96868.19;624262;227;63051;-59
2023/06/30 10:35:14;;;;;;;;;;;;;;;22.48;68.76;96879.39;624690;227;64000;-60
2023/06/30 10:37:44;;;;;;;;;;;;;;;22.48;68.37;96872.18;624687;227;65616;-60
2023/06/30 10:40:30;;;;;;;;;;;;;;;22.48;68.48;96866.00;624638;227;65220;-62
2023/06/30 10:42:58;;;;;;;;;;;;;;;22.49;68.30;96864.94;624668;225;63897;-62
2023/06/30 10:45:29;;;;;;;;;;;;;;;22.49;68.65;96863.05;624714;227;63262;-62
2023/06/30 10:47:57;;;;;;;;;;;;;;;22.50;69.17;96863.84;624551;227;62877;-62
2023/06/30 10:50:25;;;;;;;;;;;;;;;22.51;69.05;96860.11;624704;227;64881;-62
2023/06/30 10:52:53;;;;;;;;;;;;;;;22.50;68.88;96858.48;624703;227;65706;-61
2023/06/30 10:55:25;;;;;;;;;;;;;;;22.49;68.93;96856.91;624617;227;65299;-61
2023/06/30 10:57:53;;;;;;;;;;;;;;;22.49;69.13;96852.34;624678;227;63781;-61
2023/06/30 11:00:24;;;;;;;;;;;;;;;22.50;69.20;96850.45;624680;227;63191;-61
2023/06/30 11:02:56;;;;;;;;;;;;;;;22.49;69.31;96844.31;624604;227;62914;-63
2023/06/30 11:05:28;;;;;;;;;;;;;;;22.50;69.45;96839.75;624640;227;64968;-61
2023/06/30 11:08:04;;;;;;;;;;;;;;;22.50;69.46;96837.06;624567;227;65489;-61
2023/06/30 11:10:39;;;;;;;;;;;;;;;22.50;69.62;96834.39;624672;227;65479;-62
2023/06/30 11:13:09;;;;;;;;;;;;;;;22.51;69.66;96833.33;625624;225;64829;-62
2023/06/30 11:15:38;;;;;;;;;;;;;;;22.51;69.57;96830.65;626962;226;65544;-63
2023/06/30 11:18:06;;;;;;;;;;;;;;;22.51;69.66;96826.08;626993;226;63166;-61
2023/06/30 11:20:34;;;;;;;;;;;;;;;22.48;67.67;96829.34;626961;226;62998;-60
2023/06/30 11:23:03;;;;;;;;;;;;;;;22.50;69.38;96821.00;626907;226;65390;-59
2023/06/30 11:25:31;;;;;;;;;;;;;;;22.51;69.71;96822.61;626931;226;65142;-59
2023/06/30 11:28:01;;;;;;;;;;;;;;;22.52;69.57;96819.63;626995;226;64892;-62
2023/06/30 11:30:29;;;;;;;;;;;;;;;22.53;69.40;96817.75;626879;226;65165;-62
2023/06/30 11:32:58;;;;;;;;;;;;;;;22.54;69.52;96822.04;626972;226;64992;-63
2023/06/30 11:35:26;;;;;;;;;;;;;;;22.55;69.61;96823.63;626907;226;62985;-63
2023/06/30 11:37:54;;;;;;;;;;;;;;;22.54;69.56;96822.04;626846;226;65883;-64
2023/06/30 11:40:22;;;;;;;;;;;;;;;22.54;69.57;96817.48;626980;226;64985;-64
2023/06/30 11:42:50;;;;;;;;;;;;;;;22.55;69.74;96818.27;626902;226;62916;-63
2023/06/30 11:45:20;;;;;;;;;;;;;;;22.55;69.65;96818.27;626875;226;66445;-64
2023/06/30 11:47:51;;;;;;;;;;;;;;;22.56;69.75;96817.17;626855;226;65226;-64
2023/06/30 11:50:20;;;;;;;;;;;;;;;22.56;69.59;96815.31;623746;226;65030;-62
2023/06/30 11:52:51;;;;;;;;;;;;;;;22.56;69.84;96818.00;626910;225;64767;-62
2023/06/30 11:55:19;;;;;;;;;;;;;;;22.56;69.49;96820.67;627033;226;64996;-61
2023/06/30 11:57:50;;;;;;;;;;;;;;;22.57;69.65;96816.90;626878;226;65052;-62
2023/06/30 12:00:23;;;;;;;;;;;;;;;22.59;69.79;96811.27;626953;226;65095;-60
2023/06/30 12:02:57;;;;;;;;;;;;;;;22.57;69.81;96802.72;627031;226;37636;-62
2023/06/30 12:05:25;;;;;;;;;;;;;;;22.59;69.63;96813.95;626937;226;64995;-62
2023/06/30 12:07:55;;;;;;;;;;;;;;;22.58;69.51;96801.63;627006;226;62877;-62
2023/06/30 12:10:23;;;;;;;;;;;;;;;22.57;69.74;96792.80;627044;226;64974;-62
2023/06/30 12:12:56;;;;;;;;;;;;;;;22.59;69.56;96784.48;626882;226;62848;-62
2023/06/30 12:15:24;;;;;;;;;;;;;;;22.58;69.57;96780.98;626920;225;66787;-62
2023/06/30 12:17:54;;;;;;;;;;;;;;;22.59;69.53;96782.60;626911;226;64937;-62
2023/06/30 12:20:23;;;;;;;;;;;;;;;22.58;69.66;96780.20;626930;226;65077;-62
2023/06/30 12:22:51;;;;;;;;;;;;;;;22.59;69.43;96773.78;626807;225;65428;-63
2023/06/30 12:25:18;;;;;;;;;;;;;;;22.60;69.53;96770.00;626902;226;65507;-62
2023/06/30 12:27:48;;;;;;;;;;;;;;;22.60;69.38;96762.76;621894;226;65143;-63
2023/06/30 12:30:19;;;;;;;;;;;;;;;22.61;69.49;96768.91;619777;229;65451;-63
2023/06/30 12:32:47;;;;;;;;;;;;;;;22.60;69.48;96759.29;619760;229;65057;-61
2023/06/30 12:35:15;;;;;;;;;;;;;;;22.60;69.46;96761.97;619817;229;64842;-64
2023/06/30 12:37:44;;;;;;;;;;;;;;;22.61;69.45;96766.23;619833;229;65504;-64
2023/06/30 12:40:12;;;;;;;;;;;;;;;22.61;69.49;96758.20;619717;227;65267;-63
2023/06/30 12:42:39;;;;;;;;;;;;;;;22.61;69.33;96753.63;619800;229;65684;-63
2023/06/30 12:45:07;;;;;;;;;;;;;;;22.62;69.45;96754.45;619803;229;65166;-65
2023/06/30 12:47:35;;;;;;;;;;;;;;;22.62;69.52;96754.45;619691;229;65178;-65
2023/06/30 12:50:02;;;;;;;;;;;;;;;22.62;69.65;96762.48;619744;229;65027;-61
2023/06/30 12:52:30;;;;;;;;;;;;;;;22.64;69.70;96762.18;619840;229;63164;-62